Latest Weather Observations for Broome

IDW60801

Issued at 10:03 pm WST Tuesday 27 January 2015 (issued every 30 minutes, with the page automatically refreshed every 10 minutes)

About weather observations | Map of weather stations | Latest weather observations for WA | Other Formats
Station Details ID: 003003 Name: BROOME AIRPORT Lat: -17.95 Lon: 122.24 Height: 7.42 m
Data from the previous 72 hours. | See also: Recent months at Broome
Date/Time
WST
Temp
°C
App
Temp
°C
Dew
Point
Rel
Hum
%
Delta-T
°C
Wind Press
QNH
hPa
Press
MSL
hPa
Rain
since 9 am
mm
Dir
 
Spd
km/h
Gust
km/h
Spd
kts
Gust
kts
27/10:00pm 26.6 31.1 24.0 86 1.8 NNE 7 9 4 5 1007.0 - 0.0
27/09:30pm 27.0 31.2 23.5 81 2.4 NNE 7 11 4 6 1007.1 - 0.0
27/09:00pm 27.6 31.4 23.4 78 2.9 NNE 9 11 5 6 1007.1 1007.0 0.0
27/08:30pm 27.9 31.7 23.4 76 3.1 ENE 9 13 5 7 1007.1 - 0.0
27/08:00pm 28.1 32.3 23.4 75 3.2 NE 7 15 4 8 1006.6 - 0.0
27/07:30pm 28.5 33.0 23.9 76 3.2 NNE 7 9 4 5 1006.2 - 0.0
27/07:00pm 29.2 32.5 22.6 67 4.5 NW 9 11 5 6 1005.7 - 0.0
27/06:30pm 29.6 33.0 22.7 66 4.7 NNW 9 13 5 7 1005.7 - 0.0
27/06:00pm 30.3 33.8 22.9 64 5.1 N 9 17 5 9 1005.6 1005.5 0.0
27/05:30pm 30.3 32.9 22.7 64 5.2 NNE 13 19 7 10 1005.8 - 0.0
27/05:00pm 30.5 31.9 21.8 59 5.9 N 17 22 9 12 1005.6 - 0.0
27/04:30pm 30.8 34.0 23.7 66 4.9 ESE 13 19 7 10 1005.6 - 0.0
27/04:00pm 31.8 34.5 22.8 59 6.2 WSW 13 20 7 11 1005.4 - 0.0
27/03:30pm 32.5 35.1 23.9 60 6.0 W 17 22 9 12 1005.1 - 0.0
27/03:00pm 33.0 35.6 24.0 59 6.3 W 17 24 9 13 1005.4 1005.3 0.0
27/02:30pm 32.4 34.6 24.3 62 5.7 W 20 30 11 16 1005.2 - 0.0
27/02:00pm 32.2 34.1 24.4 63 5.5 WSW 22 30 12 16 1005.3 - 0.0
27/01:30pm 32.1 33.8 24.1 62 5.6 WSW 22 30 12 16 1005.7 - 0.0
27/01:00pm 32.7 34.8 24.1 60 6.0 W 20 30 11 16 1006.1 - 0.0
27/12:30pm 32.9 35.2 24.5 61 5.9 W 20 28 11 15 1006.3 - 0.0
27/12:00pm 32.6 34.6 24.0 60 6.0 W 20 30 11 16 1006.7 1006.6 0.0
27/11:30am 32.2 33.0 23.2 59 6.2 W 24 30 13 16 1007.2 - 0.0
27/11:00am 31.6 34.1 24.8 67 4.8 WSW 20 32 11 17 1007.4 - 0.0
27/10:30am 31.3 33.6 24.1 65 5.0 SW 19 32 10 17 1008.1 - 0.0
27/10:00am 32.1 34.4 24.1 62 5.6 SW 19 28 10 15 1008.7 - 0.0
27/09:30am 30.7 32.7 23.6 66 4.9 SW 19 26 10 14 1008.8 - 0.0
27/09:00am 30.5 33.2 24.2 69 4.4 WSW 17 26 9 14 1008.9 1008.8 0.0
27/08:30am 30.5 33.2 24.7 71 4.1 WSW 19 26 10 14 1008.7 - 0.0
27/08:00am 30.8 33.5 24.8 70 4.2 WSW 19 26 10 14 1008.4 - 0.0
27/07:30am 30.5 33.0 24.5 70 4.2 W 19 22 10 12 1008.3 - 0.0
27/07:00am 30.0 32.8 24.3 71 4.0 WSW 17 20 9 11 1008.2 - 0.0
27/06:30am 29.5 33.4 24.8 76 3.3 W 13 20 7 11 1008.1 - 0.0
27/06:00am 29.2 32.9 24.6 76 3.2 W 13 20 7 11 1007.6 1007.5 0.0
27/05:30am 29.0 33.0 25.0 79 2.8 WSW 13 20 7 11 1007.3 - 0.0
27/05:00am 29.0 33.6 25.3 80 2.6 WSW 11 15 6 8 1007.1 - 0.0
27/04:30am 29.0 33.0 25.0 79 2.8 WSW 13 22 7 12 1006.9 - 0.0
27/04:00am 29.1 32.5 25.3 80 2.7 W 17 24 9 13 1006.6 - 0.0
27/03:30am 29.0 33.6 25.9 83 2.2 WNW 13 20 7 11 1006.3 - 0.0
27/03:00am 28.9 33.0 25.8 83 2.2 W 15 24 8 13 1006.2 1006.1 0.0
27/02:30am 28.8 32.5 25.7 83 2.2 WNW 17 22 9 12 1006.1 - 0.0
27/02:00am 28.9 33.3 25.7 83 2.3 W 13 20 7 11 1006.4 - 0.0
27/01:30am 28.8 34.2 26.0 85 2.0 W 9 11 5 6 1006.7 - 0.0
27/01:00am 28.8 33.7 25.8 84 2.1 WNW 11 17 6 9 1006.9 - 0.0
27/12:30am 28.8 33.3 25.8 84 2.1 WNW 13 20 7 11 1006.8 - 0.0
27/12:00am 28.9 33.4 25.8 83 2.2 WNW 13 22 7 12 1007.0 1006.9 0.0
 
Date/Time
WST
Temp
°C
App
Temp
°C
Dew
Point
Rel
Hum
%
Delta-T
°C
Wind Press
QNH
hPa
Press
MSL
hPa
Rain
since 9 am
mm
Dir
 
Spd
km/h
Gust
km/h
Spd
kts
Gust
kts
26/11:30pm 28.8 33.7 25.8 84 2.1 NW 11 15 6 8 1007.4 - 0.0
26/11:00pm 29.0 33.3 25.5 81 2.5 NW 13 17 7 9 1007.7 - 0.0
26/10:30pm 29.1 33.7 25.4 80 2.6 NW 11 17 6 9 1008.0 - 0.0
26/10:00pm 28.8 34.0 25.1 80 2.6 NNW 7 11 4 6 1008.3 - 0.0
26/09:30pm 28.9 34.0 24.9 79 2.8 NW 7 11 4 6 1008.2 - 0.0
26/09:00pm 29.0 34.1 24.9 78 2.9 NNW 7 9 4 5 1008.0 1007.9 0.0
26/08:30pm 29.1 33.8 25.0 78 2.9 NW 9 13 5 7 1007.6 - 0.0
26/08:00pm 29.3 33.9 24.7 76 3.2 NW 9 15 5 8 1007.4 - 0.0
26/07:30pm 29.5 33.6 24.6 75 3.4 NW 11 13 6 7 1007.2 - 0.0
26/07:00pm 29.7 33.7 24.4 73 3.7 W 11 15 6 8 1006.7 - 0.0
26/06:30pm 30.0 33.9 24.3 71 4.0 W 11 17 6 9 1006.4 - 0.0
26/06:00pm 30.7 34.0 23.8 66 4.8 W 13 19 7 10 1006.1 1006.0 0.0
26/05:30pm 31.3 34.5 24.3 66 4.9 WNW 15 20 8 11 1005.9 - 0.0
26/05:00pm 30.7 33.6 23.9 67 4.7 WNW 15 20 8 11 1005.8 - 0.0
26/04:30pm 31.5 34.7 24.4 66 5.0 WNW 15 20 8 11 1005.4 - 0.0
26/04:00pm 31.6 34.7 24.8 67 4.8 WNW 17 24 9 13 1005.4 - 0.0
26/03:30pm 31.6 34.5 24.5 66 5.0 WNW 17 24 9 13 1005.3 - 0.0
26/03:00pm 31.8 34.6 25.2 68 4.7 W 20 28 11 15 1005.1 1005.0 0.0
26/02:30pm 31.6 34.3 25.1 68 4.6 WNW 20 26 11 14 1005.6 - 0.0
26/02:00pm 31.4 34.4 25.2 69 4.4 WNW 19 26 10 14 1006.4 - 0.0
26/01:30pm 32.1 36.1 25.6 68 4.6 W 15 24 8 13 1006.5 - 0.0
26/01:00pm 31.5 35.0 25.4 70 4.3 W 17 26 9 14 1007.3 - 0.0
26/12:30pm 31.8 35.3 25.5 69 4.5 W 17 24 9 13 1007.2 - 0.0
26/12:00pm 31.9 35.4 25.4 68 4.6 W 17 26 9 14 1007.9 1007.8 0.0
26/11:30am 31.5 34.8 25.7 71 4.1 W 19 26 10 14 1008.7 - 0.0
26/11:00am 31.7 35.9 26.0 72 4.1 W 15 20 8 11 1009.1 - 0.0
26/10:30am 31.6 36.1 25.8 71 4.1 W 13 20 7 11 1009.2 - 0.0
26/10:00am 31.6 37.1 26.1 72 3.9 WSW 9 17 5 9 1009.1 - 0.0
26/09:30am 30.8 35.6 25.7 74 3.6 WSW 11 17 6 9 1009.8 - 0.0
26/09:00am 31.0 35.7 25.6 73 3.8 SW 11 17 6 9 1009.6 1009.5 0.0
26/08:30am 30.5 35.1 25.3 74 3.7 SW 11 17 6 9 1009.7 - 0.0
26/08:00am 30.4 35.1 25.6 75 3.4 W 11 15 6 8 1009.4 - 0.0
26/07:30am 30.5 35.2 25.6 75 3.5 WSW 11 15 6 8 1008.8 - 0.0
26/07:00am 30.3 35.4 25.6 76 3.3 W 9 13 5 7 1008.7 - 0.0
26/06:30am 29.4 35.3 25.9 81 2.5 W 6 9 3 5 1008.6 - 0.0
26/06:00am 28.6 34.3 25.9 85 1.9 W 7 9 4 5 1008.4 1008.3 0.0
26/05:30am 28.3 34.1 26.0 87 1.6 W 7 9 4 5 1008.1 - 0.0
26/05:00am 28.4 34.2 26.0 87 1.7 W 7 9 4 5 1007.7 - 0.0
26/04:30am 28.4 34.3 25.9 86 1.8 NW 6 7 3 4 1007.3 - 0.0
26/04:00am 28.8 34.2 26.0 85 2.0 W 9 11 5 6 1007.4 - 0.0
26/03:30am 28.8 34.2 26.0 85 2.0 W 9 13 5 7 1007.4 - 0.0
26/03:00am 28.7 33.9 25.7 84 2.1 WSW 9 11 5 6 1007.4 1007.3 0.0
26/02:30am 28.6 34.3 25.6 84 2.1 W 6 11 3 6 1007.2 - 0.0
26/02:00am 28.6 33.7 25.5 83 2.2 W 9 13 5 7 1007.0 - 0.0
26/01:30am 28.6 33.7 25.6 84 2.1 W 9 13 5 7 1007.4 - 0.0
26/01:00am 28.6 34.5 25.9 85 1.9 WNW 6 9 3 5 1007.5 - 0.0
26/12:30am 28.7 34.6 25.9 85 2.0 WNW 6 9 3 5 1007.9 - 0.0
26/12:00am 28.8 34.6 26.0 85 2.0 WNW 7 9 4 5 1008.1 1008.0 0.0
 
Date/Time
WST
Temp
°C
App
Temp
°C
Dew
Point
Rel
Hum
%
Delta-T
°C
Wind Press
QNH
hPa
Press
MSL
hPa
Rain
since 9 am
mm
Dir
 
Spd
km/h
Gust
km/h
Spd
kts
Gust
kts
25/11:30pm 28.8 34.6 26.0 85 2.0 WNW 7 9 4 5 1008.3 - 0.0
25/11:00pm 28.9 34.5 25.8 83 2.2 NW 7 9 4 5 1008.3 - 0.0
25/10:30pm 29.1 34.3 25.7 82 2.4 WNW 9 13 5 7 1008.1 - 0.0
25/10:00pm 29.2 34.1 25.8 82 2.4 WNW 11 15 6 8 1008.2 - 0.0
25/09:30pm 29.3 33.7 25.6 80 2.6 WNW 13 20 7 11 1007.9 - 0.0
25/09:00pm 29.4 34.0 25.9 81 2.5 WNW 13 20 7 11 1007.5 1007.4 0.0
25/08:30pm 29.4 33.1 25.7 80 2.6 NW 17 24 9 13 1007.1 - 0.0
25/08:00pm 29.6 33.3 25.8 80 2.7 NW 17 24 9 13 1006.8 - 0.0
25/07:30pm 29.6 33.2 25.6 79 2.8 NW 17 22 9 12 1006.6 - 0.0
25/07:00pm 29.5 33.7 25.4 78 2.9 NW 13 19 7 10 1006.1 - 0.0
25/06:30pm 29.8 34.0 25.4 77 3.1 WNW 13 19 7 10 1005.5 - 0.0
25/06:00pm 30.1 34.7 25.9 78 3.0 WNW 13 19 7 10 1005.6 1005.5 0.0
25/05:30pm 30.6 34.7 25.8 75 3.4 W 15 24 8 13 1005.6 - 0.0
25/05:00pm 30.4 34.5 25.8 76 3.3 W 15 20 8 11 1005.8 - 0.0
25/04:30pm 30.5 34.6 25.7 75 3.4 WNW 15 20 8 11 1006.0 - 0.0
25/04:00pm 31.2 34.6 25.3 71 4.2 W 17 24 9 13 1006.2 - 0.0
25/03:30pm 31.0 33.8 24.3 67 4.7 W 17 24 9 13 1006.4 - 0.0
25/03:00pm 31.2 34.2 24.7 68 4.6 W 17 22 9 12 1006.7 1006.6 0.0
25/02:30pm 32.2 35.4 24.4 63 5.5 W 15 22 8 12 1007.0 - 0.0
25/02:00pm 32.2 35.3 24.2 62 5.6 W 15 26 8 14 1007.3 - 0.0
25/01:30pm 32.5 35.4 23.9 60 6.0 WSW 15 20 8 11 1007.6 - 0.0
25/01:00pm 31.7 34.9 24.3 65 5.2 W 15 24 8 13 1008.1 - 0.0
25/12:30pm 31.9 35.1 24.3 64 5.3 W 15 22 8 12 1008.1 - 0.0
25/12:00pm 31.5 35.1 24.4 66 5.0 WNW 13 17 7 9 1008.7 1008.6 0.0
25/11:30am 30.9 34.6 23.2 63 5.3 WSW 9 17 5 9 1009.5 - 0.0
25/11:00am 30.7 33.8 23.5 65 5.0 WNW 13 19 7 10 1009.2 - 0.0
25/10:30am 30.6 32.5 22.7 62 5.4 WNW 17 24 9 13 1009.4 - 0.0
25/10:00am 29.4 31.0 21.5 62 5.3 NW 15 20 8 11 1009.1 - 0.0
25/09:30am 29.4 30.7 21.7 63 5.2 NW 17 24 9 13 1008.9 - 0.0
25/09:00am 28.5 30.9 22.3 69 4.2 NW 13 17 7 9 1008.5 1008.4 6.8
25/08:30am 26.8 30.3 22.2 76 3.1 N 7 9 4 5 1008.6 - 6.8
25/08:00am 25.9 29.6 22.2 80 2.5 N 6 7 3 4 1008.4 - 6.8
25/07:30am 25.6 29.3 22.2 81 2.3 E 6 7 3 4 1008.5 - 6.8
25/07:00am 25.3 27.4 21.7 80 2.4 ENE 13 17 7 9 1008.5 - 6.8
25/06:30am 26.8 28.1 22.4 77 3.0 ESE 19 24 10 13 1008.4 - 6.6
25/06:00am 27.0 27.8 21.4 71 3.7 SSE 19 28 10 15 1008.6 1008.5 6.6
25/05:30am 26.7 28.1 21.0 71 3.8 SSE 15 22 8 12 1009.0 - 6.4
25/05:00am 25.8 27.7 21.3 76 3.0 SSE 13 19 7 10 1008.9 - 6.4
25/04:30am 24.8 27.1 22.1 85 1.8 SE 13 22 7 12 1010.1 - 6.4
25/04:00am 24.1 23.8 21.8 87 1.5 ESE 26 39 14 21 1010.1 - 6.4
25/03:52am 23.9 22.4 22.1 90 1.2 ESE 33 52 18 28 1010.2 - 6.4
25/03:51am 23.9 21.9 21.9 88 1.3 ESE 35 52 19 28 1010.2 - 6.4
25/03:43am 23.7 21.1 22.2 91 1.0 ESE 39 57 21 31 1010.4 - 6.4
25/03:33am 23.7 20.1 22.0 90 1.1 ESE 44 65 24 35 1010.4 - 6.0
25/03:30am 23.6 21.1 22.4 93 0.8 ESE 39 54 21 29 1010.3 - 5.8
25/03:27am 23.5 25.3 22.6 95 0.6 SE 17 26 9 14 1010.6 - 5.6
25/03:18am 23.4 21.3 22.4 94 0.7 SSE 37 56 20 30 1010.7 - 5.0
25/03:15am 23.5 20.2 22.3 93 0.8 SSE 43 56 23 30 1010.8 - 3.6
25/03:10am 24.0 20.3 22.5 91 1.0 ESE 46 69 25 37 1010.4 - 1.0
25/03:07am 26.2 23.7 23.1 83 2.1 ESE 41 65 22 35 1010.1 - 0.0
25/03:06am 28.4 28.8 25.9 86 1.8 ESE 35 52 19 28 1009.8 - 0.0
25/03:00am 29.2 34.2 26.0 83 2.3 E 11 19 6 10 1009.1 1009.0 0.0
25/02:30am 29.5 32.2 25.7 80 2.7 NW 22 30 12 16 1007.3 - 0.0
25/02:00am 29.3 32.3 25.5 80 2.7 NNW 20 32 11 17 1007.4 - 0.0
25/01:30am 29.4 32.7 25.7 80 2.6 NNW 19 30 10 16 1007.2 - 0.0
25/01:00am 29.4 32.1 25.7 80 2.6 NNW 22 32 12 17 1006.7 - 0.0
25/12:30am 29.3 30.6 25.3 79 2.8 NNW 28 43 15 23 1006.4 - 0.0
25/12:00am 29.2 31.4 25.5 80 2.6 NNW 24 39 13 21 1006.4 1006.3 0.0
 
Date/Time
WST
Temp
°C
App
Temp
°C
Dew
Point
Rel
Hum
%
Delta-T
°C
Wind Press
QNH
hPa
Press
MSL
hPa
Rain
since 9 am
mm
Dir
 
Spd
km/h
Gust
km/h
Spd
kts
Gust
kts
24/11:30pm 29.2 31.9 25.7 81 2.5 NNW 22 35 12 19 1006.7 - 0.0
24/11:00pm 29.2 32.0 25.8 82 2.4 NNW 22 32 12 17 1007.0 - 0.0
24/10:30pm 29.6 33.0 25.9 80 2.6 NNW 19 30 10 16 1007.2 - 0.0

Other Formats:

Comma delimited format used in spreadsheet applications
http://www.bom.gov.au/fwo/IDW60801/IDW60801.94203.axf

JavaScript Object Notation format (JSON) in row-major order
http://www.bom.gov.au/fwo/IDW60801/IDW60801.94203.json